Time;durP1;ratioP1;P1;durP2;ratioP2;P2;SDS_P1;SDS_P2;PMS_P1;PMS_P2;Temp;Humidity;BMP_temperature;BMP_pressure;BME280_temperature;BME280_humidity;BME280_pressure;Samples;Min_cycle;Max_cycle;Signal;HPM_P1;HPM_P2
2024/01/20 00:00:49;;;;;;;0.00;0.00;;;2.90;78.90;;;;;;5045875;28;21129;-23
2024/01/20 00:03:18;;;;;;;0.00;0.00;;;2.90;78.80;;;;;;5045575;28;20326;-24
2024/01/20 00:05:49;;;;;;;0.00;0.00;;;2.90;78.80;;;;;;5045452;28;20872;-24
2024/01/20 00:08:18;;;;;;;0.00;0.00;;;2.90;78.80;;;;;;5028126;28;20215;-23
2024/01/20 00:10:48;;;;;;;0.00;0.00;;;2.90;78.80;;;;;;5045743;28;20222;-23
2024/01/20 00:13:16;;;;;;;0.00;0.00;;;2.90;78.90;;;;;;5045047;28;20254;-23
2024/01/20 00:15:45;;;;;;;0.00;0.00;;;2.90;78.90;;;;;;5044599;28;20242;-23
2024/01/20 00:18:15;;;;;;;0.00;0.00;;;2.90;78.80;;;;;;5043179;28;20228;-23
2024/01/20 00:20:43;;;;;;;0.00;0.00;;;2.90;78.70;;;;;;5043217;28;20208;-24
2024/01/20 00:23:11;;;;;;;0.00;0.00;;;2.90;78.70;;;;;;5024412;28;20201;-23
2024/01/20 00:25:41;;;;;;;0.00;0.00;;;2.90;78.70;;;;;;5035189;28;20250;-24
2024/01/20 00:28:10;;;;;;;0.00;0.00;;;2.90;78.70;;;;;;5044499;28;20210;-24
2024/01/20 00:30:40;;;;;;;0.00;0.00;;;2.90;78.70;;;;;;5022964;28;20584;-24
2024/01/20 00:33:12;;;;;;;0.00;0.00;;;2.90;78.70;;;;;;5024726;28;20209;-24
2024/01/20 00:35:44;;;;;;;0.00;0.00;;;2.90;78.70;;;;;;5024618;28;20232;-24
2024/01/20 00:38:14;;;;;;;0.00;0.00;;;2.90;78.70;;;;;;5024481;28;20205;-23
2024/01/20 00:40:41;;;;;;;0.00;0.00;;;2.90;78.70;;;;;;5023377;28;20244;-24
2024/01/20 00:43:11;;;;;;;0.00;0.00;;;2.80;78.60;;;;;;5027163;28;20711;-23
2024/01/20 00:45:38;;;;;;;0.00;0.00;;;2.80;78.60;;;;;;5024974;28;20526;-24
2024/01/20 00:48:05;;;;;;;0.00;0.00;;;2.80;78.70;;;;;;5024824;28;20272;-24
2024/01/20 00:50:35;;;;;;;0.00;0.00;;;2.80;78.60;;;;;;5025072;28;20215;-24
2024/01/20 00:53:02;;;;;;;0.00;0.00;;;2.80;78.60;;;;;;5024165;28;20251;-23
2024/01/20 00:55:34;;;;;;;0.00;0.00;;;2.80;78.60;;;;;;5025321;28;20225;-24
2024/01/20 00:58:02;;;;;;;0.00;0.00;;;2.80;78.60;;;;;;5024638;28;20181;-23
2024/01/20 01:00:29;;;;;;;0.00;0.00;;;2.80;78.70;;;;;;5024967;28;20208;-24
2024/01/20 01:03:02;;;;;;;0.00;0.00;;;2.80;78.60;;;;;;5030915;28;20212;-24
2024/01/20 01:05:32;;;;;;;0.00;0.00;;;2.80;78.70;;;;;;5046597;28;20207;-24
2024/01/20 01:08:04;;;;;;;0.00;0.00;;;2.80;78.70;;;;;;5030300;28;20605;-24
2024/01/20 01:10:34;;;;;;;0.00;0.00;;;2.80;78.70;;;;;;5048366;28;20242;-23
2024/01/20 01:13:04;;;;;;;0.00;0.00;;;2.80;78.70;;;;;;5048343;28;20208;-24
2024/01/20 01:15:32;;;;;;;0.00;0.00;;;2.80;79.40;;;;;;5045289;28;20224;-24
2024/01/20 01:17:59;;;;;;;0.00;0.00;;;2.80;78.70;;;;;;5026357;28;20197;-23
2024/01/20 01:20:26;;;;;;;0.00;0.00;;;2.80;78.70;;;;;;5042064;28;20288;-24
2024/01/20 01:22:54;;;;;;;0.00;0.00;;;2.80;78.60;;;;;;5031789;28;20220;-23
2024/01/20 01:25:22;;;;;;;0.00;0.00;;;2.80;78.70;;;;;;5029985;28;20213;-23
2024/01/20 01:27:51;;;;;;;0.00;0.00;;;2.80;78.60;;;;;;5028408;28;20208;-24
2024/01/20 01:30:21;;;;;;;0.00;0.00;;;2.80;78.70;;;;;;5029687;28;20215;-23
2024/01/20 01:32:48;;;;;;;0.00;0.00;;;2.80;78.70;;;;;;5032973;28;20843;-24
2024/01/20 01:35:15;;;;;;;0.00;0.00;;;2.80;78.80;;;;;;5048117;28;20319;-24
2024/01/20 01:37:47;;;;;;;0.00;0.00;;;2.80;78.70;;;;;;5047800;28;20212;-23
2024/01/20 01:40:17;;;;;;;0.00;0.00;;;2.80;78.70;;;;;;5048266;28;20199;-24
2024/01/20 01:42:46;;;;;;;0.00;0.00;;;2.80;78.70;;;;;;5047887;28;20196;-24
2024/01/20 01:45:14;;;;;;;0.00;0.00;;;2.80;78.80;;;;;;5049918;28;20208;-24
2024/01/20 01:47:43;;;;;;;0.00;0.00;;;2.80;78.70;;;;;;5047941;28;20213;-24
2024/01/20 01:50:11;;;;;;;0.00;0.00;;;2.80;78.60;;;;;;5046143;28;20897;-23
2024/01/20 01:52:41;;;;;;;0.00;0.00;;;2.70;78.60;;;;;;5047588;28;20657;-23
2024/01/20 01:55:11;;;;;;;0.00;0.00;;;2.70;78.60;;;;;;5046915;28;20710;-23
2024/01/20 01:57:43;;;;;;;0.00;0.00;;;2.70;78.60;;;;;;5046175;28;21158;-24
2024/01/20 02:00:11;;;;;;;0.00;0.00;;;2.70;78.70;;;;;;5046612;28;20482;-23
2024/01/20 02:02:38;;;;;;;0.00;0.00;;;2.70;78.60;;;;;;5043233;28;20232;-23
2024/01/20 02:05:05;;;;;;;0.00;0.00;;;2.70;78.70;;;;;;5047471;28;20611;-24
2024/01/20 02:07:34;;;;;;;0.00;0.00;;;2.60;78.70;;;;;;5033716;28;20221;-23
2024/01/20 02:10:01;;;;;;;0.00;0.00;;;2.60;78.70;;;;;;5045256;28;20289;-23
2024/01/20 02:12:31;;;;;;;0.00;0.00;;;2.70;78.80;;;;;;5045702;28;20208;-24
2024/01/20 02:15:04;;;;;;;0.00;0.00;;;2.70;78.80;;;;;;5041420;28;20220;-23
2024/01/20 02:17:31;;;;;;;0.00;0.00;;;2.70;78.80;;;;;;5035564;28;20756;-24
2024/01/20 02:19:59;;;;;;;0.00;0.00;;;2.70;78.80;;;;;;5045340;28;20200;-24
2024/01/20 02:22:28;;;;;;;0.00;0.00;;;2.70;78.80;;;;;;5041583;28;20192;-25
2024/01/20 02:24:58;;;;;;;0.00;0.00;;;2.70;78.80;;;;;;5030933;28;20295;-23
2024/01/20 02:27:27;;;;;;;0.00;0.00;;;2.70;78.70;;;;;;5045111;28;20674;-24
2024/01/20 02:29:58;;;;;;;0.00;0.00;;;2.70;78.80;;;;;;5046405;28;20323;-23
2024/01/20 02:32:28;;;;;;;0.00;0.00;;;2.70;78.70;;;;;;5045734;28;20702;-24
2024/01/20 02:34:55;;;;;;;0.00;0.00;;;2.70;78.60;;;;;;5045990;28;20251;-24
2024/01/20 02:37:22;;;;;;;0.00;0.00;;;2.70;78.70;;;;;;5046477;28;20292;-24
2024/01/20 02:39:52;;;;;;;0.00;0.00;;;2.70;78.70;;;;;;5046307;28;20256;-24
2024/01/20 02:42:22;;;;;;;0.00;0.00;;;2.70;78.70;;;;;;5028266;28;20291;-23
2024/01/20 02:44:52;;;;;;;0.00;0.00;;;2.70;78.70;;;;;;5027128;28;20312;-24
2024/01/20 02:47:21;;;;;;;0.00;0.00;;;2.70;78.70;;;;;;5028667;28;20580;-24
2024/01/20 02:49:48;;;;;;;0.00;0.00;;;2.70;78.70;;;;;;5028588;28;20232;-24
2024/01/20 02:52:20;;;;;;;0.00;0.00;;;2.70;78.70;;;;;;5027035;28;20213;-24
2024/01/20 02:54:52;;;;;;;0.00;0.00;;;2.70;78.70;;;;;;5026621;28;20213;-23
2024/01/20 02:57:22;;;;;;;0.00;0.00;;;2.70;78.70;;;;;;5011536;28;20284;-24
2024/01/20 02:59:49;;;;;;;0.00;0.00;;;2.70;78.70;;;;;;5028408;28;20220;-24
2024/01/20 03:02:21;;;;;;;0.00;0.00;;;2.70;78.80;;;;;;5027920;28;20197;-24
2024/01/20 03:04:50;;;;;;;0.00;0.00;;;2.60;78.70;;;;;;5024641;28;20220;-24
2024/01/20 03:07:22;;;;;;;0.00;0.00;;;2.70;78.80;;;;;;5026546;28;20306;-24
2024/01/20 03:09:54;;;;;;;0.00;0.00;;;2.70;78.80;;;;;;5027160;28;20719;-24
2024/01/20 03:12:21;;;;;;;0.00;0.00;;;2.70;78.80;;;;;;5025967;28;20292;-24
2024/01/20 03:14:48;;;;;;;0.00;0.00;;;2.70;78.80;;;;;;5031286;28;20200;-24
2024/01/20 03:17:16;;;;;;;0.00;0.00;;;2.70;78.80;;;;;;5046471;28;20216;-23
2024/01/20 03:19:45;;;;;;;0.00;0.00;;;2.70;78.90;;;;;;5046151;28;20200;-24
2024/01/20 03:22:12;;;;;;;0.00;0.00;;;2.70;78.70;;;;;;5033776;28;20602;-24
2024/01/20 03:24:44;;;;;;;0.00;0.00;;;2.70;78.70;;;;;;5024998;28;20212;-23
2024/01/20 03:27:13;;;;;;;0.00;0.00;;;2.70;78.70;;;;;;5025771;28;20224;-24
2024/01/20 03:29:43;;;;;;;0.00;0.00;;;2.70;78.70;;;;;;5027763;28;20208;-23
2024/01/20 03:32:13;;;;;;;0.00;0.00;;;2.70;78.70;;;;;;5028279;28;20223;-23
2024/01/20 03:34:42;;;;;;;0.00;0.00;;;2.70;78.70;;;;;;5025697;28;20224;-24
2024/01/20 03:37:09;;;;;;;0.00;0.00;;;2.70;78.70;;;;;;5026193;28;20263;-24
2024/01/20 03:39:41;;;;;;;0.00;0.00;;;2.70;78.70;;;;;;5023650;28;20208;-23
2024/01/20 03:42:08;;;;;;;0.00;0.00;;;2.70;78.70;;;;;;5025506;28;20209;-24
2024/01/20 03:44:35;;;;;;;0.00;0.00;;;2.70;78.70;;;;;;5007998;28;20459;-24
2024/01/20 03:47:07;;;;;;;0.00;0.00;;;2.70;78.60;;;;;;5025736;28;20197;-23
2024/01/20 03:49:34;;;;;;;0.00;0.00;;;2.70;78.60;;;;;;5017118;28;20312;-23
2024/01/20 03:52:01;;;;;;;0.00;0.00;;;2.60;79.20;;;;;;5026075;28;20220;-23
2024/01/20 03:54:29;;;;;;;0.00;0.00;;;2.60;78.50;;;;;;5025677;28;20551;-23
2024/01/20 03:56:56;;;;;;;0.00;0.00;;;2.60;78.60;;;;;;5038452;28;20232;-24
2024/01/20 03:59:26;;;;;;;0.00;0.00;;;2.60;78.60;;;;;;5043361;28;20262;-24
2024/01/20 04:01:55;;;;;;;0.00;0.00;;;2.60;78.70;;;;;;5043850;28;20587;-24
2024/01/20 04:04:22;;;;;;;0.00;0.00;;;2.60;78.70;;;;;;5041970;28;20220;-24
2024/01/20 04:06:50;;;;;;;0.00;0.00;;;2.50;78.50;;;;;;5042701;28;20211;-24
2024/01/20 04:09:17;;;;;;;0.00;0.00;;;2.50;78.50;;;;;;5042982;28;20637;-24
2024/01/20 04:11:49;;;;;;;0.00;0.00;;;2.50;78.70;;;;;;5045035;28;20295;-24
2024/01/20 04:14:18;;;;;;;0.00;0.00;;;2.60;78.60;;;;;;5027506;28;20208;-24
2024/01/20 04:16:48;;;;;;;0.00;0.00;;;2.50;78.60;;;;;;5045408;28;20220;-24
2024/01/20 04:19:17;;;;;;;0.00;0.00;;;2.50;78.60;;;;;;5045426;28;20207;-23
2024/01/20 04:21:49;;;;;;;0.00;0.00;;;2.50;78.50;;;;;;5038589;28;20197;-24
2024/01/20 04:24:18;;;;;;;0.00;0.00;;;2.50;78.50;;;;;;5026872;28;20212;-24
2024/01/20 04:26:45;;;;;;;0.00;0.00;;;2.50;78.60;;;;;;5025309;28;20220;-24
2024/01/20 04:29:12;;;;;;;0.00;0.00;;;2.50;78.50;;;;;;5025608;28;20228;-23
2024/01/20 04:31:44;;;;;;;0.00;0.00;;;2.50;78.50;;;;;;5024470;28;20197;-24
2024/01/20 04:34:13;;;;;;;0.00;0.00;;;2.40;78.50;;;;;;5023818;28;20248;-24
2024/01/20 04:36:44;;;;;;;0.00;0.00;;;2.50;78.60;;;;;;5026706;28;20327;-23
2024/01/20 04:39:11;;;;;;;0.00;0.00;;;2.40;78.50;;;;;;5025971;28;20193;-24
2024/01/20 04:41:40;;;;;;;0.00;0.00;;;2.40;78.50;;;;;;5028377;28;20554;-23
2024/01/20 04:44:12;;;;;;;0.00;0.00;;;2.40;78.60;;;;;;5029449;28;20223;-24
2024/01/20 04:46:44;;;;;;;0.00;0.00;;;2.40;78.50;;;;;;5028295;28;20211;-24
2024/01/20 04:49:11;;;;;;;0.00;0.00;;;2.40;78.60;;;;;;5028934;28;20683;-24
2024/01/20 04:51:39;;;;;;;0.00;0.00;;;2.40;78.60;;;;;;5010722;28;20702;-24
2024/01/20 04:54:06;;;;;;;0.00;0.00;;;2.40;78.60;;;;;;5032583;28;20214;-24
2024/01/20 04:56:38;;;;;;;0.00;0.00;;;2.40;78.60;;;;;;5044977;28;20283;-24
2024/01/20 04:59:05;;;;;;;0.00;0.00;;;2.40;78.60;;;;;;5027811;28;20208;-25
2024/01/20 05:01:32;;;;;;;0.00;0.00;;;2.30;78.60;;;;;;5029152;28;20255;-24
2024/01/20 05:03:59;;;;;;;0.00;0.00;;;2.30;78.70;;;;;;5042341;28;20299;-24
2024/01/20 05:06:27;;;;;;;0.00;0.00;;;2.30;78.60;;;;;;5048387;28;20291;-24
2024/01/20 05:08:54;;;;;;;0.00;0.00;;;2.30;78.60;;;;;;5046852;28;20644;-24
2024/01/20 05:11:21;;;;;;;0.00;0.00;;;2.30;78.50;;;;;;5046577;28;20698;-24
2024/01/20 05:13:49;;;;;;;0.00;0.00;;;2.30;78.50;;;;;;5032632;28;20208;-25
2024/01/20 05:16:16;;;;;;;0.00;0.00;;;2.30;78.40;;;;;;5047966;28;20227;-24
2024/01/20 05:18:45;;;;;;;0.00;0.00;;;2.30;78.50;;;;;;5047962;28;20573;-24
2024/01/20 05:21:18;;;;;;;0.00;0.00;;;2.30;78.60;;;;;;5044463;28;20197;-24
2024/01/20 05:23:47;;;;;;;0.00;0.00;;;2.20;78.50;;;;;;5026742;28;20232;-24
2024/01/20 05:26:15;;;;;;;0.00;0.00;;;2.20;78.50;;;;;;5026470;28;20274;-24
2024/01/20 05:28:42;;;;;;;0.00;0.00;;;2.20;78.60;;;;;;5026606;28;20584;-24
2024/01/20 05:31:11;;;;;;;0.00;0.00;;;2.20;78.60;;;;;;5029596;28;20533;-24
2024/01/20 05:33:41;;;;;;;0.00;0.00;;;2.20;78.70;;;;;;5029225;28;20387;-24
2024/01/20 05:36:12;;;;;;;0.00;0.00;;;2.30;78.70;;;;;;5028757;28;20264;-24
2024/01/20 05:38:42;;;;;;;0.00;0.00;;;2.30;78.70;;;;;;5029641;28;20287;-25
2024/01/20 05:41:11;;;;;;;0.00;0.00;;;2.20;78.60;;;;;;5012420;28;20201;-24
2024/01/20 05:43:40;;;;;;;0.00;0.00;;;2.20;78.60;;;;;;5029758;28;20203;-24
2024/01/20 05:46:11;;;;;;;0.00;0.00;;;2.20;78.60;;;;;;5028354;28;20209;-25
2024/01/20 05:48:41;;;;;;;0.00;0.00;;;2.20;78.50;;;;;;5027880;28;20637;-25
2024/01/20 05:51:08;;;;;;;0.00;0.00;;;2.20;78.50;;;;;;5035533;28;20219;-24
2024/01/20 05:53:40;;;;;;;0.00;0.00;;;2.20;78.60;;;;;;5049513;28;20196;-25
2024/01/20 05:56:10;;;;;;;0.00;0.00;;;2.20;78.60;;;;;;5049832;28;20719;-25
2024/01/20 05:58:41;;;;;;;0.00;0.00;;;2.20;78.70;;;;;;5049288;28;20188;-25
2024/01/20 06:01:09;;;;;;;0.00;0.00;;;2.20;79.40;;;;;;5049528;28;20200;-25
2024/01/20 06:03:39;;;;;;;0.00;0.00;;;2.20;78.60;;;;;;5049306;28;20219;-25
2024/01/20 06:06:06;;;;;;;0.00;0.00;;;2.20;78.60;;;;;;5033077;28;20209;-25
2024/01/20 06:08:40;;;;;;;0.00;0.00;;;2.20;78.60;;;;;;5027008;28;20200;-25
2024/01/20 06:11:09;;;;;;;0.00;0.00;;;2.10;78.60;;;;;;5028408;28;20224;-25
2024/01/20 06:13:37;;;;;;;0.00;0.00;;;2.10;78.60;;;;;;5027761;28;20205;-25
2024/01/20 06:16:07;;;;;;;0.00;0.00;;;2.10;78.60;;;;;;5029221;28;20616;-25
2024/01/20 06:18:34;;;;;;;0.00;0.00;;;2.10;78.40;;;;;;5028446;28;20204;-25
2024/01/20 06:21:07;;;;;;;0.00;0.00;;;2.10;78.40;;;;;;5027302;28;20201;-25
2024/01/20 06:23:35;;;;;;;0.00;0.00;;;2.10;78.50;;;;;;5046130;28;20571;-25
2024/01/20 06:26:07;;;;;;;0.00;0.00;;;2.10;78.50;;;;;;5049137;28;20670;-25
2024/01/20 06:28:36;;;;;;;0.00;0.00;;;2.10;78.50;;;;;;5047000;28;20262;-25
2024/01/20 06:31:04;;;;;;;0.00;0.00;;;2.10;78.50;;;;;;5048042;28;20204;-25
2024/01/20 06:33:35;;;;;;;0.00;0.00;;;2.10;78.50;;;;;;5048059;28;20204;-25
2024/01/20 06:36:03;;;;;;;0.00;0.00;;;2.10;78.50;;;;;;5046883;28;20228;-25
2024/01/20 06:38:33;;;;;;;0.00;0.00;;;2.10;78.50;;;;;;5027673;28;20245;-25
2024/01/20 06:41:03;;;;;;;0.00;0.00;;;2.10;78.50;;;;;;5045129;28;20239;-24
2024/01/20 06:43:30;;;;;;;0.00;0.00;;;2.10;78.60;;;;;;5044861;28;20203;-24
2024/01/20 06:45:59;;;;;;;0.00;0.00;;;2.10;78.40;;;;;;5040835;28;20510;-25
2024/01/20 06:48:32;;;;;;;0.00;0.00;;;2.00;78.30;;;;;;5024984;28;20687;-24
2024/01/20 06:51:03;;;;;;;0.00;0.00;;;2.00;78.30;;;;;;5026457;28;20212;-25
2024/01/20 06:53:31;;;;;;;0.00;0.00;;;2.00;78.30;;;;;;5025972;28;20208;-25
2024/01/20 06:55:59;;;;;;;0.00;0.00;;;2.00;78.40;;;;;;5026716;28;20707;-24
2024/01/20 06:58:26;;;;;;;0.00;0.00;;;2.00;78.50;;;;;;5026358;28;20197;-25
2024/01/20 07:00:53;;;;;;;0.00;0.00;;;2.00;78.60;;;;;;5025151;28;20200;-25
2024/01/20 07:03:21;;;;;;;0.00;0.00;;;2.00;78.60;;;;;;5024719;28;20739;-24
2024/01/20 07:05:49;;;;;;;0.00;0.00;;;2.00;78.60;;;;;;5027342;28;20205;-25
2024/01/20 07:08:16;;;;;;;0.00;0.00;;;2.00;78.70;;;;;;5041692;28;20755;-24
2024/01/20 07:10:45;;;;;;;0.00;0.00;;;2.00;78.60;;;;;;5046339;28;20354;-25
2024/01/20 07:13:12;;;;;;;0.00;0.00;;;2.10;78.60;;;;;;5035925;28;20213;-25
2024/01/20 07:15:40;;;;;;;0.00;0.00;;;2.00;78.40;;;;;;5025952;28;20224;-24
2024/01/20 07:18:07;;;;;;;0.00;0.00;;;2.00;78.50;;;;;;5024148;28;20201;-25
2024/01/20 07:20:34;;;;;;;0.00;0.00;;;2.00;78.60;;;;;;5024901;28;20205;-24
2024/01/20 07:23:06;;;;;;;0.00;0.00;;;2.00;78.60;;;;;;5044355;28;20687;-25
2024/01/20 07:25:39;;;;;;;0.00;0.00;;;2.00;78.70;;;;;;5045596;28;20211;-24
2024/01/20 07:28:08;;;;;;;0.00;0.00;;;2.10;78.80;;;;;;5044084;28;20716;-25
2024/01/20 07:30:38;;;;;;;0.00;0.00;;;2.10;78.80;;;;;;5033941;28;20599;-25
2024/01/20 07:33:05;;;;;;;0.00;0.00;;;2.10;78.90;;;;;;5027445;28;20201;-24
2024/01/20 07:35:35;;;;;;;0.00;0.00;;;2.10;78.80;;;;;;5025691;28;20674;-25
2024/01/20 07:38:03;;;;;;;0.00;0.00;;;2.10;78.80;;;;;;5024760;28;20568;-25
2024/01/20 07:40:33;;;;;;;0.00;0.00;;;2.10;78.80;;;;;;5023666;28;20202;-25
2024/01/20 07:43:03;;;;;;;0.00;0.00;;;2.10;78.70;;;;;;5024001;28;20275;-25
2024/01/20 07:45:35;;;;;;;0.00;0.00;;;2.20;78.90;;;;;;5038319;28;20730;-24
2024/01/20 07:48:03;;;;;;;0.00;0.00;;;2.20;78.90;;;;;;5030414;28;20196;-25
2024/01/20 07:50:30;;;;;;;0.00;0.00;;;2.20;78.90;;;;;;5025450;28;20211;-25
2024/01/20 07:53:00;;;;;;;0.00;0.00;;;2.20;78.80;;;;;;5023351;28;20200;-25
2024/01/20 07:55:27;;;;;;;0.00;0.00;;;2.20;78.80;;;;;;5023857;28;20223;-24
2024/01/20 07:57:59;;;;;;;0.00;0.00;;;2.20;78.70;;;;;;5023869;28;20533;-25
2024/01/20 08:00:29;;;;;;;0.00;0.00;;;2.20;78.60;;;;;;5023523;28;20604;-24
2024/01/20 08:02:58;;;;;;;0.00;0.00;;;2.20;78.70;;;;;;5035037;28;20223;-25
2024/01/20 08:05:25;;;;;;;0.00;0.00;;;2.20;78.60;;;;;;5043464;28;20212;-24
2024/01/20 08:07:55;;;;;;;0.00;0.00;;;2.20;78.60;;;;;;5044813;28;20265;-24
2024/01/20 08:10:24;;;;;;;0.00;0.00;;;2.10;78.50;;;;;;5045582;28;20674;-25
2024/01/20 08:12:53;;;;;;;0.00;0.00;;;2.10;78.40;;;;;;5045149;28;20748;-24
2024/01/20 08:15:22;;;;;;;0.00;0.00;;;2.10;78.50;;;;;;5046833;28;20282;-24
2024/01/20 08:17:52;;;;;;;0.00;0.00;;;2.10;78.50;;;;;;5044980;28;20599;-24
2024/01/20 08:20:21;;;;;;;0.00;0.00;;;2.10;78.60;;;;;;5043998;28;20212;-25
2024/01/20 08:22:51;;;;;;;0.00;0.00;;;2.10;78.60;;;;;;5025381;28;20564;-25
2024/01/20 08:25:18;;;;;;;0.00;0.00;;;2.10;78.60;;;;;;5009189;28;20225;-24
2024/01/20 08:27:45;;;;;;;0.00;0.00;;;2.10;78.70;;;;;;5025605;28;20501;-25
2024/01/20 08:30:12;;;;;;;0.00;0.00;;;2.10;78.70;;;;;;5023729;28;20220;-25
2024/01/20 08:32:40;;;;;;;0.00;0.00;;;2.10;78.70;;;;;;5023481;28;20409;-25
2024/01/20 08:35:10;;;;;;;0.00;0.00;;;2.10;78.70;;;;;;5007093;28;20715;-25
2024/01/20 08:37:37;;;;;;;0.00;0.00;;;2.10;78.90;;;;;;5023040;28;20232;-25
2024/01/20 08:40:04;;;;;;;0.00;0.00;;;2.10;78.80;;;;;;5024672;28;20301;-25
2024/01/20 08:42:34;;;;;;;0.00;0.00;;;2.20;78.90;;;;;;5023030;28;20205;-25
2024/01/20 08:45:02;;;;;;;0.00;0.00;;;2.20;78.90;;;;;;5044335;28;20216;-25
2024/01/20 08:47:31;;;;;;;0.00;0.00;;;2.20;78.90;;;;;;5045137;28;20216;-25
2024/01/20 08:49:59;;;;;;;0.00;0.00;;;2.30;79.00;;;;;;5044671;28;20745;-24
2024/01/20 08:52:28;;;;;;;0.00;0.00;;;2.20;78.90;;;;;;5046317;28;20215;-25
2024/01/20 08:54:57;;;;;;;0.00;0.00;;;2.20;78.90;;;;;;5038417;28;20320;-24
2024/01/20 08:57:29;;;;;;;0.00;0.00;;;2.30;78.90;;;;;;5026801;28;20314;-24
2024/01/20 08:59:57;;;;;;;0.00;0.00;;;2.30;78.90;;;;;;5026553;28;20219;-24
2024/01/20 09:02:24;;;;;;;0.00;0.00;;;2.30;78.90;;;;;;5025332;28;20204;-25
2024/01/20 09:04:54;;;;;;;0.00;0.00;;;2.30;79.00;;;;;;5046099;28;20659;-25
2024/01/20 09:07:21;;;;;;;0.00;0.00;;;2.30;79.00;;;;;;5045783;28;20212;-25
2024/01/20 09:09:52;;;;;;;0.00;0.00;;;2.30;79.00;;;;;;5044340;28;20200;-25
2024/01/20 09:12:21;;;;;;;0.00;0.00;;;2.30;78.90;;;;;;5036671;28;20768;-25
2024/01/20 09:14:51;;;;;;;0.00;0.00;;;2.30;78.90;;;;;;5026464;28;20213;-25
2024/01/20 09:17:18;;;;;;;0.00;0.00;;;2.30;78.70;;;;;;5025292;28;20217;-25
2024/01/20 09:19:47;;;;;;;0.00;0.00;;;2.30;78.60;;;;;;5022563;28;20201;-25
2024/01/20 09:22:17;;;;;;;0.00;0.00;;;2.30;78.70;;;;;;5024404;28;20217;-25
2024/01/20 09:24:44;;;;;;;0.00;0.00;;;2.30;78.80;;;;;;5025843;28;20558;-24
2024/01/20 09:27:11;;;;;;;0.00;0.00;;;2.30;78.90;;;;;;5029003;28;20303;-24
2024/01/20 09:29:39;;;;;;;0.00;0.00;;;2.30;78.90;;;;;;5039738;28;20226;-25
2024/01/20 09:32:13;;;;;;;0.00;0.00;;;2.30;78.90;;;;;;5047889;28;20220;-25
2024/01/20 09:34:41;;;;;;;0.00;0.00;;;2.30;79.00;;;;;;5047687;28;20232;-25
2024/01/20 09:37:08;;;;;;;0.00;0.00;;;2.40;78.90;;;;;;5049485;28;20755;-25
2024/01/20 09:39:38;;;;;;;0.00;0.00;;;2.40;79.00;;;;;;5045745;28;20694;-24
2024/01/20 09:42:06;;;;;;;0.00;0.00;;;2.40;78.90;;;;;;5046474;28;20196;-25
2024/01/20 09:44:33;;;;;;;0.00;0.00;;;2.40;78.80;;;;;;5045685;28;20208;-25
2024/01/20 09:47:11;;;;;;;0.00;0.00;;;2.40;78.80;;;;;;5048435;28;20208;-25
2024/01/20 09:49:40;;;;;;;0.00;0.00;;;2.40;78.90;;;;;;5046064;28;20711;-25
2024/01/20 09:52:17;;;;;;;0.00;0.00;;;2.30;78.50;;;;;;5046000;28;20208;-25
2024/01/20 09:55:13;;;;;;;0.00;0.00;;;2.30;78.60;;;;;;5047486;28;20226;-25
2024/01/20 09:57:41;;;;;;;0.00;0.00;;;2.30;78.60;;;;;;5046132;28;20224;-25
2024/01/20 10:00:09;;;;;;;0.00;0.00;;;2.30;78.60;;;;;;5045903;28;20537;-25
2024/01/20 10:02:43;;;;;;;0.00;0.00;;;2.20;78.70;;;;;;5043150;28;20474;-25
2024/01/20 10:05:14;;;;;;;0.00;0.00;;;2.20;78.70;;;;;;5027181;28;20282;-25
2024/01/20 10:07:48;;;;;;;0.00;0.00;;;2.20;78.60;;;;;;5027343;28;20217;-25
2024/01/20 10:10:22;;;;;;;0.00;0.00;;;2.20;78.60;;;;;;5028067;28;20209;-25
2024/01/20 10:12:51;;;;;;;0.00;0.00;;;2.20;78.50;;;;;;5029079;28;20209;-25
2024/01/20 10:15:28;;;;;;;0.00;0.00;;;2.20;78.50;;;;;;5029250;28;20212;-25
2024/01/20 10:18:08;;;;;;;0.00;0.00;;;2.20;78.60;;;;;;5027518;28;20247;-25
2024/01/20 10:20:38;;;;;;;0.00;0.00;;;2.20;78.70;;;;;;5026908;28;20648;-25
2024/01/20 10:23:06;;;;;;;0.00;0.00;;;2.20;78.60;;;;;;5045999;28;20701;-25
2024/01/20 10:25:39;;;;;;;0.00;0.00;;;2.10;78.50;;;;;;5049046;28;20246;-25
2024/01/20 10:28:09;;;;;;;0.00;0.00;;;2.10;78.50;;;;;;5049237;28;20188;-25
2024/01/20 10:30:39;;;;;;;0.00;0.00;;;2.10;78.50;;;;;;5048390;28;20212;-25
2024/01/20 10:33:08;;;;;;;0.00;0.00;;;2.10;78.60;;;;;;5046791;28;20204;-25
2024/01/20 10:35:39;;;;;;;0.00;0.00;;;2.10;78.60;;;;;;5046558;28;20240;-25
2024/01/20 10:38:14;;;;;;;0.00;0.00;;;2.10;78.60;;;;;;5029644;28;20643;-25
2024/01/20 10:40:50;;;;;;;0.00;0.00;;;2.10;78.60;;;;;;5026916;28;20188;-25
2024/01/20 10:43:20;;;;;;;0.00;0.00;;;2.20;78.70;;;;;;5026345;28;20239;-25
2024/01/20 10:46:01;;;;;;;0.00;0.00;;;2.20;78.60;;;;;;5026853;28;20267;-25
2024/01/20 10:48:36;;;;;;;0.00;0.00;;;2.20;78.60;;;;;;5026460;28;20706;-24
2024/01/20 10:51:11;;;;;;;0.00;0.00;;;2.20;78.70;;;;;;5026390;28;20192;-25
2024/01/20 10:53:39;;;;;;;0.00;0.00;;;2.20;78.60;;;;;;5029710;28;20254;-25
2024/01/20 10:56:08;;;;;;;0.00;0.00;;;2.20;78.50;;;;;;5045134;28;20542;-25
2024/01/20 10:58:44;;;;;;;0.00;0.00;;;2.20;78.40;;;;;;5046098;28;20285;-25
2024/01/20 11:01:14;;;;;;;0.00;0.00;;;2.20;78.30;;;;;;5045581;28;20206;-25
2024/01/20 11:03:42;;;;;;;0.00;0.00;;;2.20;77.90;;;;;;5044200;28;20640;-25
2024/01/20 11:06:23;;;;;;;0.00;0.00;;;2.10;78.00;;;;;;5042143;28;20312;-25
2024/01/20 11:08:53;;;;;;;0.00;0.00;;;2.10;78.00;;;;;;5025840;28;20205;-25
2024/01/20 11:11:26;;;;;;;0.00;0.00;;;2.10;78.00;;;;;;5025233;28;20205;-25
2024/01/20 11:13:58;;;;;;;0.00;0.00;;;2.10;78.00;;;;;;5024332;28;20312;-25
2024/01/20 11:16:30;;;;;;;0.00;0.00;;;2.00;77.80;;;;;;5024015;28;20657;-25
2024/01/20 11:19:11;;;;;;;0.00;0.00;;;2.00;77.90;;;;;;5025682;28;20322;-25
2024/01/20 11:21:41;;;;;;;0.00;0.00;;;2.00;77.90;;;;;;5033437;28;20204;-24
2024/01/20 11:24:11;;;;;;;0.00;0.00;;;1.90;77.80;;;;;;5045245;28;20205;-25
2024/01/20 11:26:41;;;;;;;0.00;0.00;;;1.90;77.80;;;;;;5044211;28;20303;-24
2024/01/20 11:29:13;;;;;;;0.00;0.00;;;1.90;78.00;;;;;;5028259;28;20263;-25
2024/01/20 11:31:49;;;;;;;0.00;0.00;;;1.90;78.00;;;;;;5008623;28;20200;-25
2024/01/20 11:34:16;;;;;;;0.00;0.00;;;1.90;78.00;;;;;;5024023;28;20229;-25
2024/01/20 11:36:48;;;;;;;0.00;0.00;;;2.00;78.20;;;;;;5023997;28;20196;-25
2024/01/20 11:39:19;;;;;;;0.00;0.00;;;1.90;78.10;;;;;;5023573;28;20196;-25
2024/01/20 11:41:46;;;;;;;0.00;0.00;;;2.00;78.20;;;;;;5025565;28;20209;-27
2024/01/20 11:44:21;;;;;;;0.00;0.00;;;2.00;78.30;;;;;;5026047;28;20197;-24
2024/01/20 11:46:51;;;;;;;0.00;0.00;;;2.00;78.30;;;;;;5023760;28;20200;-24
2024/01/20 11:49:21;;;;;;;0.00;0.00;;;2.00;78.30;;;;;;5024131;28;20284;-24
2024/01/20 11:51:51;;;;;;;0.00;0.00;;;2.00;78.30;;;;;;5040835;28;20216;-27
2024/01/20 11:54:21;;;;;;;0.00;0.00;;;2.10;78.40;;;;;;5044586;28;20570;-24
2024/01/20 11:56:56;;;;;;;0.00;0.00;;;2.10;78.50;;;;;;5043742;28;20203;-25
2024/01/20 11:59:26;;;;;;;0.00;0.00;;;2.10;78.40;;;;;;5044897;28;20207;-24
2024/01/20 12:01:53;;;;;;;0.00;0.00;;;2.20;78.40;;;;;;5042497;28;20221;-25
2024/01/20 12:04:21;;;;;;;0.00;0.00;;;2.20;78.50;;;;;;5044735;28;20399;-25
2024/01/20 12:06:48;;;;;;;0.00;0.00;;;2.30;78.50;;;;;;5024063;28;20294;-25
2024/01/20 12:09:19;;;;;;;0.00;0.00;;;2.30;78.50;;;;;;5026189;28;20311;-24
2024/01/20 12:11:46;;;;;;;0.00;0.00;;;2.30;78.40;;;;;;5025933;28;20209;-25
2024/01/20 12:14:16;;;;;;;0.00;0.00;;;2.40;78.60;;;;;;5027242;28;20197;-25
2024/01/20 12:16:43;;;;;;;0.00;0.00;;;2.40;78.60;;;;;;5022931;28;20287;-25
2024/01/20 12:19:13;;;;;;;0.00;0.00;;;2.40;78.50;;;;;;5023994;28;20225;-25
2024/01/20 12:21:40;;;;;;;0.00;0.00;;;2.50;78.40;;;;;;5023787;28;20267;-24
2024/01/20 12:24:12;;;;;;;0.00;0.00;;;2.50;78.40;;;;;;5006720;28;20197;-25
2024/01/20 12:26:44;;;;;;;0.00;0.00;;;2.50;78.40;;;;;;5026774;28;20197;-24
2024/01/20 12:29:16;;;;;;;0.00;0.00;;;2.50;78.40;;;;;;5026965;28;20323;-24
2024/01/20 12:31:48;;;;;;;0.00;0.00;;;2.60;78.60;;;;;;5026756;28;20200;-25
2024/01/20 12:34:20;;;;;;;0.00;0.00;;;2.60;78.60;;;;;;5022921;28;20712;-24
2024/01/20 12:36:48;;;;;;;0.00;0.00;;;2.60;78.60;;;;;;5037433;28;20228;-25
2024/01/20 12:39:20;;;;;;;0.00;0.00;;;2.70;78.50;;;;;;5042782;28;20244;-24
2024/01/20 12:41:48;;;;;;;0.00;0.00;;;2.70;78.60;;;;;;5045073;28;20295;-24
2024/01/20 12:44:16;;;;;;;0.00;0.00;;;2.70;78.50;;;;;;5044862;28;20265;-24
2024/01/20 12:46:44;;;;;;;0.00;0.00;;;2.80;78.60;;;;;;5044632;28;20227;-27
2024/01/20 12:49:14;;;;;;;0.00;0.00;;;2.80;78.60;;;;;;5044085;28;20211;-25
2024/01/20 12:51:42;;;;;;;0.00;0.00;;;2.80;78.60;;;;;;5043355;28;20590;-25
2024/01/20 12:54:09;;;;;;;0.00;0.00;;;2.80;78.60;;;;;;5025537;28;20213;-25
2024/01/20 12:56:39;;;;;;;0.00;0.00;;;2.90;78.60;;;;;;5006754;28;20231;-24
2024/01/20 12:59:06;;;;;;;0.00;0.00;;;2.90;78.50;;;;;;5023001;28;20229;-25
2024/01/20 13:01:33;;;;;;;0.00;0.00;;;2.90;78.50;;;;;;5027075;28;20224;-24
2024/01/20 13:04:05;;;;;;;0.00;0.00;;;2.90;78.50;;;;;;5044185;28;20286;-24
2024/01/20 13:06:32;;;;;;;0.00;0.00;;;3.00;78.60;;;;;;5048113;28;20207;-25
2024/01/20 13:09:08;;;;;;;0.00;0.00;;;3.00;78.90;;;;;;5046866;28;20196;-24